CheckWX is a tool to help pilots better visualize weather data.  It is not intended as a substitute for an official pre-flight weather briefing.

20:31:22 UTC

KEWR METAR
Newark Liberty International Airport
Newark, New Jersey, USA
Current

40 mins ago

KEWR 201951Z 32015KT 10SM FEW035 SCT050 SCT160 BKN250 09/M03 A2996 RMK AO2 SLP144 T00941028 $
Observed
Nov-20 @ 19:51 UTC
Wind
  • 320° at 15 KTS
Visibility
10 SM
Flight Rules
VFR
Cloud Levels
  • Few at 3,500' AGL
  • Scattered at 5,000' AGL
  • Scattered at 16,000' AGL
  • Broken at 25,000' AGL
Temperature
C / 48°F
Dewpoint
-3°C / 27°F
Humidity
43%
Altimeter
29.96" Hg
Pressure
1014.52 hPa
Previous

2 hours ago

KEWR 201851Z 31014G19KT 10SM FEW035 BKN048 BKN250 10/M04 A2995 RMK AO2 SLP140 T01001039 $
Observed
Nov-20 @ 18:51 UTC
Wind
  • 310° at 14 KTS
  • Gusting to 19 KTS
Visibility
10 SM
Flight Rules
VFR
Cloud Levels
  • Few at 3,500' AGL
  • Broken at 4,800' AGL
  • Broken at 25,000' AGL
Temperature
10°C / 50°F
Dewpoint
-4°C / 25°F
Humidity
37%
Altimeter
29.95" Hg
Pressure
1014.22 hPa
Previous

3 hours ago

KEWR 201751Z 31012KT 10SM FEW036 BKN041 BKN250 09/M03 A2995 RMK AO2 SLP142 T00891028 10089 20044 58002 $
Observed
Nov-20 @ 17:51 UTC
Wind
  • 310° at 12 KTS
Visibility
10 SM
Flight Rules
VFR
Cloud Levels
  • Few at 3,600' AGL
  • Broken at 4,100' AGL
  • Broken at 25,000' AGL
Temperature
C / 48°F
Dewpoint
-3°C / 27°F
Humidity
43%
Altimeter
29.95" Hg
Pressure
1014.22 hPa